Cannon, Mississippi
Current Conditions -  °F | °C
As of 1:55 AM on Saturday 20 Dec 2014 (Local Time) from KUOX Reporting Station
Clear Clear  
Wind Chill: 36°   Ceiling: Unl
Heat Index: 36°   Visibility: 7mi
Dew Point: 32°   Wind: 3mph
Humidity: 87%   Direction: 30°NNE
Pressure: 30.22"   Gusts: NA
Location:  34.7855°N, 89.1846°W
Report Text: KUOX 200755Z AUTO 03003KT 7SM CLR 02/00 A3022 RMK AO2 PWINO PNO
Loading
Personal Weather Stations






























Interactive Weather Map New forecast layout! Learn more

10-Day Weather Forecast

Advertisements
Track Severe Weather on mobile